Time;durP1;ratioP1;P1;durP2;ratioP2;P2;SDS_P1;SDS_P2;PMS_P1;PMS_P2;Temp;Humidity;BMP_temperature;BMP_pressure;BME280_temperature;BME280_humidity;BME280_pressure;Samples;Min_cycle;Max_cycle;Signal;HPM_P1;HPM_P2
2022/01/04 00:01:20;;;;;;;8.38;2.72;;;;;;;7.99;86.00;99955.34;5033952;28;20125;-65
2022/01/04 00:03:47;;;;;;;9.48;2.95;;;;;;;8.06;85.70;99959.03;5016255;28;20048;-65
2022/01/04 00:06:14;;;;;;;7.80;2.83;;;;;;;8.06;85.54;99947.63;5033487;28;20045;-65
2022/01/04 00:08:41;;;;;;;7.05;2.15;;;;;;;8.20;85.35;99940.91;5031568;28;20057;-65
2022/01/04 00:11:16;;;;;;;6.53;2.25;;;;;;;8.03;85.91;99943.47;5033869;28;20542;-65
2022/01/04 00:13:43;;;;;;;7.88;2.17;;;;;;;8.08;87.11;99932.44;5015992;28;20049;-65
2022/01/04 00:16:11;;;;;;;6.63;2.00;;;;;;;8.23;85.39;99936.16;4979466;28;20454;-65
2022/01/04 00:18:38;;;;;;;6.18;2.00;;;;;;;8.16;84.86;99937.75;4992518;28;20049;-65
2022/01/04 00:21:06;;;;;;;9.30;2.05;;;;;;;8.00;85.75;99933.22;5014025;28;20045;-65
2022/01/04 00:23:33;;;;;;;6.13;2.03;;;;;;;7.99;87.57;99928.94;5013776;28;20068;-65
2022/01/04 00:26:00;;;;;;;7.90;2.00;;;;;;;8.01;85.97;99928.78;4996505;28;20080;-65
2022/01/04 00:28:27;;;;;;;6.85;1.90;;;;;;;8.00;86.31;99920.00;5012621;28;20038;-65
2022/01/04 00:30:54;;;;;;;6.70;2.13;;;;;;;8.16;86.36;99908.69;4990816;28;20053;-65
2022/01/04 00:33:22;;;;;;;5.47;1.80;;;;;;;8.01;86.06;99905.00;4984925;28;20132;-65
2022/01/04 00:35:49;;;;;;;5.80;1.98;;;;;;;8.04;85.64;99881.75;4993916;28;20046;-65
2022/01/04 00:38:16;;;;;;;5.95;2.00;;;;;;;8.07;86.09;99880.59;4976811;28;20051;-65
2022/01/04 00:40:43;;;;;;;4.90;1.80;;;;;;;7.91;86.07;99873.41;4976903;28;20043;-66
2022/01/04 00:43:10;;;;;;;7.78;2.80;;;;;;;7.83;85.93;99870.75;4993992;28;20046;-65
2022/01/04 00:45:37;;;;;;;5.90;2.10;;;;;;;7.83;86.13;99860.19;4993560;28;20385;-65
2022/01/04 00:50:37;;;;;;;5.28;1.75;;;;;;;7.81;86.27;99854.25;4993898;28;20084;-65
2022/01/04 00:53:06;;;;;;;8.45;1.85;;;;;;;7.83;85.88;99854.91;4993697;28;20050;-66
2022/01/04 00:55:34;;;;;;;9.68;1.80;;;;;;;7.69;87.15;99843.97;4993697;28;20377;-65
2022/01/04 00:58:02;;;;;;;4.88;1.90;;;;;;;7.72;87.36;99849.91;5010449;28;20103;-65
2022/01/04 01:00:32;;;;;;;6.95;1.70;;;;;;;7.81;87.05;99835.75;5013198;28;20058;-65
2022/01/04 01:02:59;;;;;;;4.80;1.50;;;;;;;7.78;86.62;99828.97;5013249;28;20092;-66
2022/01/04 01:05:26;;;;;;;5.15;1.80;;;;;;;7.73;86.38;99831.28;5011046;28;20530;-65
2022/01/04 01:07:55;;;;;;;5.43;1.90;;;;;;;7.63;87.68;99820.81;5013506;28;20056;-65
2022/01/04 01:10:40;;;;;;;4.65;1.65;;;;;;;7.68;88.86;99818.53;5014526;28;20049;-65
2022/01/04 01:13:08;;;;;;;3.80;1.35;;;;;;;7.56;89.28;99813.69;5015088;28;20529;-65
2022/01/04 01:15:37;;;;;;;5.47;1.80;;;;;;;7.69;88.35;99811.44;5012988;28;20092;-66
2022/01/04 01:18:04;;;;;;;5.55;1.65;;;;;;;7.63;87.73;99804.16;5012012;28;20136;-66
2022/01/04 01:20:30;;;;;;;5.45;1.63;;;;;;;7.66;88.09;99807.31;5011927;28;20450;-65
2022/01/04 01:22:58;;;;;;;4.80;1.60;;;;;;;7.68;87.81;99810.63;5012770;28;20042;-65
2022/01/04 01:25:25;;;;;;;4.43;1.48;;;;;;;7.68;88.20;99807.16;5012813;28;20065;-65
2022/01/04 01:27:52;;;;;;;5.47;1.65;;;;;;;7.66;89.07;99802.03;5011690;28;20046;-65
2022/01/04 01:30:19;;;;;;;4.72;1.50;;;;;;;7.69;89.53;99790.31;5015378;28;20502;-65
2022/01/04 01:32:45;;;;;;;4.15;1.60;;;;;;;7.70;89.13;99797.25;5032489;28;20056;-65
2022/01/04 01:35:13;;;;;;;5.55;1.63;;;;;;;7.76;87.10;99791.34;5013267;28;20453;-65
2022/01/04 01:37:40;;;;;;;4.85;1.70;;;;;;;7.80;87.59;99792.66;5032428;28;20049;-65
2022/01/04 01:40:07;;;;;;;5.45;2.00;;;;;;;7.70;88.31;99802.53;5032381;28;20045;-66
2022/01/04 01:42:34;;;;;;;4.70;1.70;;;;;;;7.84;87.36;99798.47;5032525;28;20508;-65
2022/01/04 01:45:00;;;;;;;3.80;1.60;;;;;;;7.81;87.51;99796.97;4998561;28;20107;-65
2022/01/04 01:47:27;;;;;;;7.35;1.60;;;;;;;7.74;87.49;99788.03;5032371;28;20494;-65
2022/01/04 01:49:54;;;;;;;4.90;1.70;;;;;;;7.68;88.61;99793.97;5031272;28;20053;-65
2022/01/04 01:52:21;;;;;;;5.65;1.83;;;;;;;7.80;87.21;99789.22;5031014;28;20520;-65
2022/01/04 01:54:48;;;;;;;5.63;1.80;;;;;;;7.62;88.37;99768.19;5027313;28;20034;-65
2022/01/04 01:57:14;;;;;;;8.93;2.10;;;;;;;7.62;89.57;99779.59;4979304;28;20057;-65
2022/01/04 01:59:41;;;;;;;6.55;2.00;;;;;;;7.66;88.77;99773.00;5012768;28;20046;-65
2022/01/04 02:02:08;;;;;;;6.40;1.80;;;;;;;7.60;89.32;99775.44;5030945;28;20512;-65
2022/01/04 02:04:35;;;;;;;5.57;1.90;;;;;;;7.76;87.84;99780.78;5029370;28;20409;-66
2022/01/04 02:07:01;;;;;;;6.90;1.95;;;;;;;7.77;88.44;99776.34;5031740;28;20042;-65
2022/01/04 02:09:29;;;;;;;9.20;2.10;;;;;;;7.70;89.61;99765.59;5014362;28;20379;-66
2022/01/04 02:11:57;;;;;;;6.22;1.90;;;;;;;7.70;87.85;99760.31;5032160;28;20099;-65
2022/01/04 02:14:25;;;;;;;4.50;1.95;;;;;;;7.67;88.47;99760.63;5014543;28;20077;-66
2022/01/04 02:16:52;;;;;;;5.18;1.95;;;;;;;7.73;88.19;99759.16;5032048;28;20136;-65
2022/01/04 02:19:19;;;;;;;7.20;2.15;;;;;;;7.61;88.75;99754.16;5024674;28;20053;-65
2022/01/04 02:21:45;;;;;;;6.53;1.90;;;;;;;7.58;89.73;99749.19;5011177;28;20050;-65
2022/01/04 02:24:12;;;;;;;7.28;2.05;;;;;;;7.62;89.50;99747.06;5011730;28;20042;-65
2022/01/04 02:26:40;;;;;;;5.93;2.15;;;;;;;7.56;89.83;99739.78;4978692;28;20042;-66
2022/01/04 02:29:07;;;;;;;6.75;2.42;;;;;;;7.63;88.77;99749.53;5012288;28;20049;-65
2022/01/04 02:31:36;;;;;;;7.80;2.60;;;;;;;7.59;90.55;99740.28;5012176;28;20149;-65
2022/01/04 02:34:03;;;;;;;6.47;2.40;;;;;;;7.72;89.27;99736.38;5013068;28;20050;-65
2022/01/04 02:36:31;;;;;;;5.80;2.17;;;;;;;7.59;89.92;99734.19;5011884;28;20387;-65
2022/01/04 02:38:58;;;;;;;6.20;2.40;;;;;;;7.66;89.93;99729.94;5015606;28;20042;-65
2022/01/04 02:41:25;;;;;;;6.63;2.72;;;;;;;7.55;90.42;99727.56;5034344;28;20050;-66
2022/01/04 02:43:51;;;;;;;5.72;2.25;;;;;;;7.58;89.43;99719.34;5018035;28;20053;-65
2022/01/04 02:46:18;;;;;;;7.90;2.55;;;;;;;7.55;90.89;99717.00;5017715;28;20037;-65
2022/01/04 02:48:45;;;;;;;8.30;2.50;;;;;;;7.52;90.94;99712.88;5015199;28;20449;-65
2022/01/04 02:51:12;;;;;;;7.70;2.70;;;;;;;7.51;91.15;99711.22;4998259;28;20461;-65
2022/01/04 02:53:39;;;;;;;6.90;2.50;;;;;;;7.56;91.32;99702.84;5021005;28;20040;-65
2022/01/04 02:56:06;;;;;;;6.47;2.40;;;;;;;7.51;91.46;99711.22;5017612;28;20409;-65
2022/01/04 02:58:33;;;;;;;6.78;2.58;;;;;;;7.52;91.28;99709.44;5017698;28;20057;-65
2022/01/04 03:01:00;;;;;;;8.15;2.72;;;;;;;7.51;91.47;99708.59;5033663;28;20133;-65
2022/01/04 03:03:27;;;;;;;8.07;2.70;;;;;;;7.46;90.47;99706.44;5033990;28;20050;-65
2022/01/04 03:05:54;;;;;;;6.97;2.40;;;;;;;7.58;90.13;99709.59;4999615;28;20398;-65
2022/01/04 03:08:21;;;;;;;7.55;2.50;;;;;;;7.52;89.96;99701.50;5033607;28;20445;-65
2022/01/04 03:10:48;;;;;;;5.80;2.42;;;;;;;7.50;91.18;99707.75;5017522;28;20042;-65
2022/01/04 03:13:16;;;;;;;8.13;2.38;;;;;;;7.55;90.25;99701.16;5033685;28;20095;-65
2022/01/04 03:15:44;;;;;;;5.97;2.53;;;;;;;7.52;90.93;99690.97;5034468;28;20375;-65
2022/01/04 03:18:10;;;;;;;6.97;2.72;;;;;;;7.62;90.31;99691.63;5035008;28;20044;-65
2022/01/04 03:20:37;;;;;;;8.02;2.67;;;;;;;7.68;89.79;99683.91;5034840;28;20048;-65
2022/01/04 03:23:08;;;;;;;8.05;2.75;;;;;;;7.43;90.66;99674.25;5034948;28;20049;-65
2022/01/04 03:25:36;;;;;;;9.70;2.95;;;;;;;7.60;90.40;99670.66;5018288;28;20049;-66
2022/01/04 03:28:04;;;;;;;8.85;2.80;;;;;;;7.63;89.13;99667.72;5034458;28;20461;-65
2022/01/04 03:30:30;;;;;;;7.05;2.72;;;;;;;7.49;90.18;99653.34;5034317;28;20409;-65
2022/01/04 03:32:57;;;;;;;7.25;2.60;;;;;;;7.51;91.03;99647.88;5034601;28;20045;-65
2022/01/04 03:35:24;;;;;;;8.07;2.90;;;;;;;7.50;90.67;99640.97;5016625;28;20033;-65
2022/01/04 03:37:52;;;;;;;8.90;2.80;;;;;;;7.37;91.67;99625.59;5015228;28;20073;-65
2022/01/04 03:40:19;;;;;;;8.02;3.13;;;;;;;7.38;90.74;99615.88;5034396;28;20132;-66
2022/01/04 03:42:45;;;;;;;9.70;3.10;;;;;;;7.38;91.80;99618.50;5016585;28;20057;-65
2022/01/04 03:45:12;;;;;;;7.68;3.17;;;;;;;7.41;92.03;99611.09;5023747;28;20056;-65
2022/01/04 03:47:39;;;;;;;8.52;2.83;;;;;;;7.38;90.02;99607.94;5016743;28;20056;-65
2022/01/04 03:50:07;;;;;;;8.93;3.00;;;;;;;7.44;89.72;99605.50;5016853;28;20100;-66
2022/01/04 03:52:35;;;;;;;8.13;3.15;;;;;;;7.38;91.26;99602.66;4996899;28;20050;-65
2022/01/04 03:55:05;;;;;;;7.15;3.15;;;;;;;7.36;90.79;99586.19;4981118;28;20515;-65
2022/01/04 03:57:32;;;;;;;10.40;3.35;;;;;;;7.58;89.76;99587.38;5014163;28;20050;-65
2022/01/04 03:59:58;;;;;;;12.25;3.28;;;;;;;7.47;90.18;99588.50;5015532;28;20052;-65
2022/01/04 04:02:25;;;;;;;7.05;2.85;;;;;;;7.38;90.64;99587.66;5028213;28;20042;-66
2022/01/04 04:04:52;;;;;;;7.70;3.28;;;;;;;7.34;91.51;99572.31;5032779;28;20065;-65
2022/01/04 04:07:19;;;;;;;10.25;3.67;;;;;;;7.42;91.38;99580.25;5031058;28;20057;-65
2022/01/04 04:09:45;;;;;;;9.80;3.63;;;;;;;7.48;91.12;99569.88;5032255;28;20038;-65
2022/01/04 04:12:14;;;;;;;10.25;3.60;;;;;;;7.42;91.20;99561.78;5033743;28;20186;-65
2022/01/04 04:14:42;;;;;;;10.98;3.90;;;;;;;7.39;91.27;99551.56;5033597;28;20044;-65
2022/01/04 04:17:10;;;;;;;8.35;3.78;;;;;;;7.32;92.10;99540.81;5033696;28;20041;-65
2022/01/04 04:19:36;;;;;;;9.90;3.85;;;;;;;7.29;92.41;99539.34;5029486;28;20046;-66
2022/01/04 04:22:04;;;;;;;10.07;3.92;;;;;;;7.28;92.20;99535.06;5004203;28;20077;-65
2022/01/04 04:24:30;;;;;;;9.75;4.00;;;;;;;7.24;92.43;99522.34;5005807;28;20041;-65
2022/01/04 04:26:57;;;;;;;11.60;4.07;;;;;;;7.25;92.82;99516.91;4996277;28;20042;-65
2022/01/04 04:29:24;;;;;;;9.27;3.90;;;;;;;7.29;92.73;99523.53;5012437;28;20042;-66
2022/01/04 04:31:50;;;;;;;10.38;4.22;;;;;;;7.31;92.87;99520.69;5013547;28;20073;-65
2022/01/04 04:34:17;;;;;;;12.02;4.38;;;;;;;7.37;92.40;99511.31;5010571;28;20592;-65
2022/01/04 04:36:44;;;;;;;12.25;4.50;;;;;;;7.36;92.83;99497.28;4996132;28;20450;-65
2022/01/04 04:39:13;;;;;;;10.63;4.03;;;;;;;7.37;92.73;99485.75;5013389;28;20690;-65
2022/01/04 04:41:40;;;;;;;12.20;4.10;;;;;;;7.38;91.83;99484.75;5013556;28;20125;-65
2022/01/04 04:44:07;;;;;;;9.68;3.97;;;;;;;7.39;91.64;99485.59;5013383;28;20418;-65
2022/01/04 04:46:33;;;;;;;9.93;3.72;;;;;;;7.26;91.53;99476.34;5012259;28;20060;-65
2022/01/04 04:49:01;;;;;;;9.25;4.53;;;;;;;7.33;92.22;99478.31;5013344;28;20562;-65
2022/01/04 04:51:27;;;;;;;9.35;4.07;;;;;;;7.37;91.75;99474.38;5023821;28;20057;-65
2022/01/04 04:53:54;;;;;;;12.45;4.63;;;;;;;7.35;92.44;99471.06;5031791;28;20049;-65
2022/01/04 04:56:21;;;;;;;9.68;4.20;;;;;;;7.40;92.45;99474.03;5032736;28;20486;-66
2022/01/04 04:58:47;;;;;;;9.85;4.22;;;;;;;7.38;91.92;99478.66;5032926;28;20042;-65
2022/01/04 05:01:14;;;;;;;11.10;4.22;;;;;;;7.39;91.69;99477.69;5032255;28;20033;-65
2022/01/04 05:03:41;;;;;;;12.35;4.72;;;;;;;7.43;91.97;99471.09;5032962;28;20506;-65
2022/01/04 05:06:08;;;;;;;10.52;4.18;;;;;;;7.47;91.87;99480.31;5032659;28;20045;-65
2022/01/04 05:08:34;;;;;;;11.70;3.97;;;;;;;7.53;91.01;99471.75;5013539;28;20064;-65
2022/01/04 05:11:02;;;;;;;16.30;4.80;;;;;;;7.51;90.10;99481.63;5014988;28;20041;-65
2022/01/04 05:13:29;;;;;;;9.90;4.05;;;;;;;7.44;90.46;99470.94;5031030;28;20061;-65
2022/01/04 05:15:56;;;;;;;11.35;4.45;;;;;;;7.56;89.93;99483.78;5014977;28;20042;-65
2022/01/04 05:18:23;;;;;;;11.15;4.90;;;;;;;7.42;90.07;99475.56;5032735;28;20045;-65
2022/01/04 05:20:50;;;;;;;13.90;5.05;;;;;;;7.43;89.94;99476.38;5032429;28;20409;-65
2022/01/04 05:23:17;;;;;;;12.48;4.70;;;;;;;7.35;90.57;99476.34;5031674;28;20056;-65
2022/01/04 05:25:43;;;;;;;11.43;4.70;;;;;;;7.47;90.42;99469.75;5032637;28;20040;-65
2022/01/04 05:28:10;;;;;;;12.68;4.60;;;;;;;7.37;89.64;99471.72;5014954;28;20092;-65
2022/01/04 05:30:37;;;;;;;12.43;5.00;;;;;;;7.42;90.06;99466.78;5032273;28;20418;-65
2022/01/04 05:33:03;;;;;;;10.75;4.40;;;;;;;7.44;90.50;99464.81;5032391;28;20518;-65
2022/01/04 05:35:30;;;;;;;10.57;4.65;;;;;;;7.38;90.08;99465.47;5031842;28;20049;-65
2022/01/04 05:37:57;;;;;;;9.70;4.78;;;;;;;7.33;90.92;99465.13;5032966;28;20064;-65
2022/01/04 05:40:25;;;;;;;12.57;5.00;;;;;;;7.33;91.58;99473.06;5032607;28;20572;-65
2022/01/04 05:42:52;;;;;;;11.93;5.25;;;;;;;7.23;91.48;99468.75;5032155;28;20402;-65
2022/01/04 05:45:19;;;;;;;12.63;5.70;;;;;;;7.23;91.74;99481.13;5014862;28;20049;-65
2022/01/04 05:47:46;;;;;;;13.02;5.25;;;;;;;7.25;91.53;99474.69;5014218;28;20056;-65
2022/01/04 05:50:13;;;;;;;15.82;5.05;;;;;;;7.29;91.44;99467.28;5014615;28;20494;-65
2022/01/04 05:52:39;;;;;;;11.88;5.30;;;;;;;7.34;91.54;99454.44;5027258;28;20060;-65
2022/01/04 05:55:07;;;;;;;11.65;5.65;;;;;;;7.41;90.72;99444.88;4995075;28;20498;-65
2022/01/04 05:57:33;;;;;;;12.05;5.72;;;;;;;7.40;91.24;99451.13;5005658;28;20111;-65
2022/01/04 06:00:01;;;;;;;18.60;6.03;;;;;;;7.39;91.57;99441.56;4998460;28;20131;-65
2022/01/04 06:02:28;;;;;;;12.77;6.07;;;;;;;7.37;91.07;99445.34;5014325;28;20107;-65
2022/01/04 06:05:06;;;;;;;11.90;5.78;;;;;;;7.37;91.34;99432.16;4995202;28;20029;-65
2022/01/04 06:07:32;;;;;;;10.60;4.93;;;;;;;7.42;91.00;99425.41;5030247;28;20445;-65
2022/01/04 06:10:00;;;;;;;11.65;5.60;;;;;;;7.47;91.37;99424.91;5031839;28;20045;-65
2022/01/04 06:15:09;;;;;;;18.13;6.30;;;;;;;7.36;91.49;99425.25;5073018;28;20732;-66
2022/01/04 06:17:41;;;;;;;12.88;5.28;;;;;;;7.31;91.51;99415.16;5069993;28;20095;-66
2022/01/04 06:20:10;;;;;;;13.00;6.00;;;;;;;7.34;91.50;99409.56;5067016;28;20060;-66
2022/01/04 06:22:38;;;;;;;11.00;5.60;;;;;;;7.41;90.07;99421.13;5068071;28;20047;-66
2022/01/04 06:25:07;;;;;;;15.70;6.07;;;;;;;7.38;90.71;99428.53;5069379;28;20066;-67
2022/01/04 06:27:34;;;;;;;11.25;5.63;;;;;;;7.35;91.62;99423.59;5067759;28;20049;-66
2022/01/04 06:30:03;;;;;;;13.75;5.88;;;;;;;7.38;91.38;99423.25;5068031;28;20084;-66
2022/01/04 06:32:30;;;;;;;11.20;5.45;;;;;;;7.41;91.27;99415.84;5068161;28;20048;-66
2022/01/04 06:34:57;;;;;;;12.05;5.75;;;;;;;7.40;91.65;99405.44;5051236;28;20063;-66
2022/01/04 06:37:23;;;;;;;11.85;5.97;;;;;;;7.45;90.62;99400.50;5066154;28;20401;-67
2022/01/04 06:39:50;;;;;;;19.38;6.43;;;;;;;7.38;91.24;99373.94;5051301;28;20052;-66
2022/01/04 06:42:18;;;;;;;14.23;6.47;;;;;;;7.39;90.98;99380.06;5035699;28;20477;-66
2022/01/04 06:44:45;;;;;;;12.82;6.40;;;;;;;7.39;91.23;99380.06;5069161;28;20041;-66
2022/01/04 06:47:11;;;;;;;13.00;6.80;;;;;;;7.30;92.03;99379.25;5069027;28;20401;-66
2022/01/04 06:49:38;;;;;;;12.48;6.05;;;;;;;7.35;91.05;99381.38;5069170;28;20055;-66
2022/01/04 06:52:06;;;;;;;13.05;6.00;;;;;;;7.39;91.28;99372.16;5069217;28;20048;-65
2022/01/04 06:54:33;;;;;;;16.67;6.93;;;;;;;7.37;91.32;99377.59;5068534;28;20037;-66
2022/01/04 06:57:01;;;;;;;15.45;6.90;;;;;;;7.28;90.98;99376.78;5069173;28;20401;-66
2022/01/04 06:59:28;;;;;;;15.43;6.60;;;;;;;7.32;91.21;99377.25;5069121;28;20043;-66
2022/01/04 07:01:54;;;;;;;14.85;6.85;;;;;;;7.36;91.40;99383.84;5067637;28;20094;-66
2022/01/04 07:04:21;;;;;;;14.02;6.82;;;;;;;7.37;91.36;99382.88;5067824;28;20094;-66
2022/01/04 07:06:48;;;;;;;17.17;6.95;;;;;;;7.54;88.27;99375.75;5067148;28;20045;-66
2022/01/04 07:09:15;;;;;;;14.80;6.68;;;;;;;7.45;89.89;99382.03;5068470;28;20060;-65
2022/01/04 07:11:41;;;;;;;14.68;7.05;;;;;;;7.39;90.16;99385.34;5067551;28;20427;-66
2022/01/04 07:14:08;;;;;;;16.48;7.10;;;;;;;7.44;90.67;99385.66;5068381;28;20041;-66
2022/01/04 07:16:35;;;;;;;15.77;7.03;;;;;;;7.57;88.90;99378.06;5068471;28;20124;-66
2022/01/04 07:19:02;;;;;;;17.98;7.50;;;;;;;7.48;89.34;99381.72;5068708;28;20132;-65
2022/01/04 07:21:29;;;;;;;16.25;7.50;;;;;;;7.35;90.73;99371.66;5068448;28;20704;-66
2022/01/04 07:23:58;;;;;;;17.30;7.40;;;;;;;7.39;90.48;99366.88;5067094;28;20040;-66
2022/01/04 07:26:25;;;;;;;16.42;7.90;;;;;;;7.34;91.27;99364.72;5055759;28;20049;-65
2022/01/04 07:28:52;;;;;;;16.83;7.72;;;;;;;7.36;90.68;99359.28;5055238;28;20041;-65
2022/01/04 07:31:19;;;;;;;16.30;6.97;;;;;;;7.29;91.66;99352.06;5055166;28;20049;-66
2022/01/04 07:33:45;;;;;;;15.52;7.07;;;;;;;7.28;91.84;99360.13;5053337;28;20055;-66
2022/01/04 07:36:14;;;;;;;15.20;7.20;;;;;;;7.28;91.88;99360.13;5036972;28;20056;-66
2022/01/04 07:38:42;;;;;;;15.95;7.43;;;;;;;7.44;90.94;99354.84;5053909;28;20497;-65
2022/01/04 07:41:08;;;;;;;14.48;6.78;;;;;;;7.36;91.16;99349.56;5055108;28;20045;-65
2022/01/04 07:43:36;;;;;;;14.82;6.45;;;;;;;7.38;91.46;99346.75;5054066;28;20127;-65
2022/01/04 07:46:03;;;;;;;17.10;8.00;;;;;;;7.36;91.15;99361.94;5056218;28;20067;-65
2022/01/04 07:48:30;;;;;;;16.90;7.75;;;;;;;7.37;91.38;99347.72;5090168;28;20478;-65
2022/01/04 07:50:58;;;;;;;17.35;7.45;;;;;;;7.28;91.46;99345.13;5055653;28;20065;-65
2022/01/04 07:53:28;;;;;;;19.10;7.78;;;;;;;7.38;91.26;99344.13;5037540;28;20086;-65
2022/01/04 07:55:55;;;;;;;17.00;7.30;;;;;;;7.31;91.48;99338.66;5053519;28;20036;-66
2022/01/04 07:58:23;;;;;;;18.10;8.40;;;;;;;7.27;91.82;99340.81;5053174;28;20048;-66
2022/01/04 08:00:50;;;;;;;22.73;8.23;;;;;;;7.24;92.18;99342.97;5053416;28;20226;-66
2022/01/04 08:03:17;;;;;;;20.05;8.80;;;;;;;7.28;92.01;99341.66;5052963;28;20398;-65
2022/01/04 08:05:44;;;;;;;18.35;8.52;;;;;;;7.35;91.51;99344.44;5054589;28;20055;-66
2022/01/04 08:08:11;;;;;;;21.75;9.52;;;;;;;7.39;91.42;99341.31;5052760;28;20053;-66
2022/01/04 08:10:38;;;;;;;20.35;9.30;;;;;;;7.34;91.19;99346.25;5036943;28;20435;-66
2022/01/04 08:13:05;;;;;;;19.35;8.90;;;;;;;7.35;91.45;99344.44;5053693;28;20409;-66
2022/01/04 08:15:31;;;;;;;16.52;8.80;;;;;;;7.35;91.29;99349.72;5053182;28;20041;-65
2022/01/04 08:17:58;;;;;;;22.65;8.65;;;;;;;7.33;91.71;99346.41;5036186;28;20053;-66
2022/01/04 08:20:25;;;;;;;18.55;8.95;;;;;;;7.20;90.80;99349.56;5052878;28;20436;-65
2022/01/04 08:22:52;;;;;;;21.13;8.95;;;;;;;7.41;91.02;99352.53;5050301;28;20037;-66
2022/01/04 08:25:19;;;;;;;16.92;8.35;;;;;;;7.48;90.85;99360.59;5036513;28;20032;-66
2022/01/04 08:27:46;;;;;;;18.95;8.38;;;;;;;7.38;91.30;99349.38;5052743;28;20040;-66
2022/01/04 08:30:14;;;;;;;20.27;8.10;;;;;;;7.40;91.32;99347.41;5036731;28;20143;-66
2022/01/04 08:32:42;;;;;;;17.98;8.25;;;;;;;7.42;90.83;99345.41;5054104;28;20063;-65
2022/01/04 08:35:10;;;;;;;21.85;8.38;;;;;;;7.37;90.44;99339.81;5050738;28;20041;-65
2022/01/04 08:37:37;;;;;;;19.75;8.38;;;;;;;7.40;90.93;99344.75;5052914;28;20461;-65
2022/01/04 08:40:06;;;;;;;20.45;8.43;;;;;;;7.38;91.08;99333.56;5052715;28;20041;-65
2022/01/04 08:42:36;;;;;;;18.38;8.55;;;;;;;7.39;90.98;99324.66;5052644;28;20084;-66
2022/01/04 08:45:06;;;;;;;19.75;9.55;;;;;;;7.33;91.51;99320.03;5052252;28;20497;-66
2022/01/04 08:47:33;;;;;;;19.75;9.40;;;;;;;7.35;92.03;99321.53;5035928;28;20420;-65
2022/01/04 08:50:00;;;;;;;17.90;8.90;;;;;;;7.35;91.50;99324.19;5053657;28;20041;-66
2022/01/04 08:52:28;;;;;;;18.90;8.85;;;;;;;7.40;90.85;99326.28;5053834;28;20048;-67
2022/01/04 08:54:58;;;;;;;16.17;8.23;;;;;;;7.40;90.90;99329.75;5053363;28;20041;-65
2022/01/04 08:57:24;;;;;;;15.00;7.35;;;;;;;7.30;90.42;99337.03;5053357;28;20053;-66
2022/01/04 08:59:54;;;;;;;18.55;8.07;;;;;;;7.43;89.66;99350.53;5052077;28;20457;-66
2022/01/04 09:02:22;;;;;;;18.48;7.95;;;;;;;7.40;89.83;99347.41;5053665;28;20520;-67
2022/01/04 09:04:50;;;;;;;18.92;8.13;;;;;;;7.42;89.46;99355.97;5053324;28;20128;-66
2022/01/04 09:07:17;;;;;;;16.98;8.05;;;;;;;7.34;90.39;99350.72;5051423;28;20052;-67
2022/01/04 09:09:44;;;;;;;18.70;8.73;;;;;;;7.36;91.15;99346.91;5053270;28;20041;-66
2022/01/04 09:12:28;;;;;;;16.73;8.27;;;;;;;7.45;91.00;99345.91;5046759;28;20099;-66
2022/01/04 09:14:58;;;;;;;17.40;8.65;;;;;;;7.41;90.37;99357.78;5052100;28;20071;-66
2022/01/04 09:20:13;;;;;;;15.82;8.23;;;;;;;7.41;90.48;99367.53;5040276;28;20112;-66
2022/01/04 09:22:41;;;;;;;20.63;8.25;;;;;;;7.39;90.48;99375.59;5033904;28;20441;-66
2022/01/04 09:25:09;;;;;;;15.25;7.70;;;;;;;7.59;89.72;99378.72;5047780;28;20033;-67
2022/01/04 09:27:37;;;;;;;17.02;8.35;;;;;;;7.63;88.98;99364.19;5047591;28;20049;-66
2022/01/04 09:30:05;;;;;;;20.73;8.35;;;;;;;7.66;89.57;99352.47;5066416;28;20139;-66
2022/01/04 09:32:33;;;;;;;19.73;9.57;;;;;;;7.55;90.12;99363.38;5052628;28;20538;-66
2022/01/04 09:35:01;;;;;;;19.45;9.43;;;;;;;7.49;90.79;99352.53;5049455;28;20044;-67
2022/01/04 09:37:27;;;;;;;22.52;9.68;;;;;;;7.47;91.42;99341.28;5033712;28;20508;-65
2022/01/04 09:39:54;;;;;;;17.35;8.93;;;;;;;7.46;91.54;99336.19;5085141;28;20063;-65
2022/01/04 09:42:21;;;;;;;21.20;9.98;;;;;;;7.50;91.14;99343.59;5031304;28;20215;-65
2022/01/04 09:44:49;;;;;;;19.30;9.70;;;;;;;7.57;91.34;99353.50;5045518;28;20037;-66
2022/01/04 09:47:18;;;;;;;18.60;9.32;;;;;;;7.57;91.30;99356.13;5040718;28;20053;-65
2022/01/04 09:49:45;;;;;;;18.77;9.52;;;;;;;7.69;89.09;99375.88;5050781;28;20049;-66
2022/01/04 09:52:15;;;;;;;18.42;8.60;;;;;;;7.58;89.63;99374.41;5047687;28;20048;-65
2022/01/04 09:54:43;;;;;;;21.48;9.23;;;;;;;7.61;89.21;99365.34;5083609;28;20041;-65
2022/01/04 09:57:09;;;;;;;19.73;9.85;;;;;;;7.62;90.10;99353.78;5048747;28;20106;-66
2022/01/04 09:59:36;;;;;;;17.60;9.55;;;;;;;7.58;90.33;99353.31;5084600;28;20091;-65
2022/01/04 10:02:20;;;;;;;21.35;9.23;;;;;;;7.58;89.18;99363.84;5051118;28;20052;-65
2022/01/04 10:04:48;;;;;;;19.05;9.05;;;;;;;7.51;89.63;99341.78;5038005;28;20045;-65
2022/01/04 10:07:15;;;;;;;19.17;9.20;;;;;;;7.48;90.17;99342.13;5046084;28;20042;-66
2022/01/04 10:09:46;;;;;;;18.30;8.70;;;;;;;7.62;90.29;99351.16;5043229;28;20497;-65
2022/01/04 10:12:15;;;;;;;20.30;9.53;;;;;;;7.52;90.38;99353.16;5035267;28;20049;-65
2022/01/04 10:14:44;;;;;;;18.92;9.77;;;;;;;7.52;90.38;99351.34;5077907;28;20064;-66
2022/01/04 10:17:15;;;;;;;23.08;10.43;;;;;;;7.56;91.23;99349.19;5043618;28;20139;-66
2022/01/04 10:19:47;;;;;;;17.73;8.35;;;;;;;7.68;88.95;99343.38;5050065;28;20049;-65
2022/01/04 10:22:30;;;;;;;21.63;8.25;;;;;;;7.69;89.18;99352.97;5048595;28;20041;-66
2022/01/04 10:27:45;;;;;;;18.35;7.32;;;;;;;7.50;89.76;99348.88;5121080;27;20124;-65
2022/01/04 10:30:20;;;;;;;14.38;7.35;;;;;;;7.64;89.99;99357.94;5086669;28;20448;-66
2022/01/04 10:35:42;;;;;;;12.85;6.47;;;;;;;7.60;89.81;99350.50;5128105;27;20857;-66
2022/01/04 10:41:25;;;;;;;13.20;6.47;;;;;;;7.77;89.83;99348.66;5122985;27;20804;-66
2022/01/04 10:44:06;;;;;;;13.90;6.22;;;;;;;7.64;89.14;99352.66;5121200;27;20078;-65
2022/01/04 10:46:38;;;;;;;16.48;6.00;;;;;;;7.77;89.62;99348.66;5124281;27;20039;-65
2022/01/04 10:49:24;;;;;;;11.70;5.30;;;;;;;7.63;88.67;99332.50;5134132;27;20047;-65
2022/01/04 10:52:12;;;;;;;17.65;5.72;;;;;;;7.47;89.82;99335.19;5119824;27;20400;-66
2022/01/04 10:54:39;;;;;;;17.33;5.50;;;;;;;7.46;90.48;99334.38;5119805;27;20063;-66
2022/01/04 10:57:08;;;;;;;14.95;6.05;;;;;;;7.50;89.56;99327.75;5121067;27;20055;-65
2022/01/04 10:59:36;;;;;;;13.57;5.65;;;;;;;7.71;88.43;99326.38;5124806;27;20477;-66
2022/01/04 11:02:04;;;;;;;13.85;5.28;;;;;;;7.76;87.62;99337.25;5119680;27;20039;-66
2022/01/04 11:04:31;;;;;;;14.90;5.82;;;;;;;7.76;87.99;99334.63;5119780;27;20501;-65
2022/01/04 11:07:01;;;;;;;13.00;5.95;;;;;;;7.66;88.60;99331.38;5121985;27;20121;-66
2022/01/04 11:09:29;;;;;;;13.25;6.25;;;;;;;7.52;89.04;99327.59;5123920;27;20063;-66
2022/01/04 11:11:56;;;;;;;12.75;6.10;;;;;;;7.79;87.74;99318.44;5109788;27;20403;-68
2022/01/04 11:14:25;;;;;;;16.70;6.40;;;;;;;7.59;89.03;99318.00;5119461;27;20122;-66
2022/01/04 11:16:52;;;;;;;14.45;6.00;;;;;;;7.61;89.18;99325.75;5120066;27;20051;-65
2022/01/04 11:19:19;;;;;;;14.48;7.05;;;;;;;7.56;89.37;99341.28;5133699;27;20035;-65
2022/01/04 11:21:47;;;;;;;14.93;6.05;;;;;;;7.55;89.04;99340.47;5125018;27;20417;-65
2022/01/04 11:24:16;;;;;;;14.93;5.97;;;;;;;7.56;88.56;99344.72;5125318;27;20463;-66
2022/01/04 11:26:47;;;;;;;19.80;7.10;;;;;;;7.51;89.50;99347.03;5125216;27;20039;-66
2022/01/04 11:29:16;;;;;;;15.93;6.85;;;;;;;7.46;89.13;99337.00;5122010;27;20127;-65
2022/01/04 11:32:05;;;;;;;17.80;7.38;;;;;;;7.55;89.30;99329.91;5121305;27;20048;-66
2022/01/04 11:35:09;;;;;;;14.93;7.25;;;;;;;7.44;89.91;99338.16;5124564;27;20071;-66
2022/01/04 11:37:38;;;;;;;18.05;7.95;;;;;;;7.60;89.61;99329.38;5112611;27;20496;-66
2022/01/04 11:40:29;;;;;;;13.15;6.30;;;;;;;7.52;89.44;99327.59;5112480;27;20044;-65
2022/01/04 11:42:56;;;;;;;17.45;8.60;;;;;;;7.53;88.98;99333.69;5140840;27;20066;-65
2022/01/04 11:45:39;;;;;;;15.85;8.18;;;;;;;7.61;89.28;99329.22;5116162;27;20046;-65
2022/01/04 11:48:42;;;;;;;13.38;6.57;;;;;;;7.62;88.27;99328.25;5127583;27;20470;-66
2022/01/04 11:54:27;;;;;;;15.45;7.82;;;;;;;7.44;88.83;99333.72;5049946;28;20412;-66
2022/01/04 11:56:58;;;;;;;14.55;7.60;;;;;;;7.43;89.33;99324.16;5042382;28;20107;-66
2022/01/04 11:59:31;;;;;;;21.52;9.07;;;;;;;7.55;89.27;99323.78;5032056;28;20042;-65
2022/01/04 12:02:37;;;;;;;18.65;9.25;;;;;;;7.60;89.14;99318.81;5015531;28;20573;-66